createdAt,value
2019-02-10T00:04:03.137Z,22.33
2019-02-10T00:08:07.468Z,22.50
2019-02-10T00:12:12.110Z,22.40
2019-02-10T00:16:21.545Z,20.97
2019-02-10T00:20:25.743Z,21.67
2019-02-10T00:24:29.922Z,24.63
2019-02-10T00:28:34.131Z,17.70
2019-02-10T00:32:38.295Z,21.83
2019-02-10T00:36:43.347Z,20.80
2019-02-10T00:40:47.634Z,21.03
2019-02-10T00:44:52.476Z,26.40
2019-02-10T00:48:57.063Z,23.77
2019-02-10T00:53:01.270Z,21.83
2019-02-10T00:57:06.105Z,21.97
2019-02-10T01:01:10.340Z,24.27
2019-02-10T01:05:14.549Z,18.77
2019-02-10T01:09:19.575Z,21.57
2019-02-10T01:13:23.776Z,29.07
2019-02-10T01:17:28.005Z,21.70
2019-02-10T01:21:32.585Z,23.13
2019-02-10T01:25:36.904Z,25.50
2019-02-10T01:29:41.102Z,22.43
2019-02-10T01:33:45.677Z,21.57
2019-02-10T01:37:49.904Z,17.80
2019-02-10T01:41:54.084Z,20.67
2019-02-10T01:46:00.338Z,20.00
2019-02-10T01:50:06.475Z,23.20
2019-02-10T01:54:11.578Z,22.90
2019-02-10T01:58:15.788Z,21.57
2019-02-10T02:02:20.021Z,22.93
2019-02-10T02:06:24.256Z,20.57
2019-02-10T02:10:28.498Z,21.80
2019-02-10T02:14:32.679Z,22.50
2019-02-10T02:18:36.957Z,19.90
2019-02-10T02:22:41.178Z,18.53
2019-02-10T02:26:45.371Z,19.00
2019-02-10T02:30:49.923Z,19.87
2019-02-10T02:34:54.140Z,20.73
2019-02-10T02:38:58.320Z,23.13
2019-02-10T02:43:02.777Z,20.83
2019-02-10T02:47:06.991Z,25.93
2019-02-10T02:51:11.219Z,16.47
2019-02-10T02:55:15.470Z,21.07
2019-02-10T02:59:20.012Z,22.53
2019-02-10T03:03:24.226Z,21.67
2019-02-10T03:07:28.432Z,19.33
2019-02-10T03:11:32.650Z,19.77
2019-02-10T03:15:36.851Z,20.87
2019-02-10T03:19:41.073Z,20.73
2019-02-10T03:23:45.652Z,22.97
2019-02-10T03:27:49.829Z,16.53
2019-02-10T03:31:54.035Z,26.90
2019-02-10T03:35:58.233Z,17.30
2019-02-10T03:40:02.446Z,26.10
2019-02-10T03:44:06.695Z,17.37
2019-02-10T03:48:10.887Z,21.77
2019-02-10T03:52:15.071Z,17.13
2019-02-10T03:56:19.660Z,21.53
2019-02-10T04:00:23.859Z,23.40
2019-02-10T04:04:28.077Z,17.70
2019-02-10T04:08:32.253Z,21.40
2019-02-10T04:12:36.468Z,24.00
2019-02-10T04:16:40.685Z,23.83
2019-02-10T04:20:44.863Z,20.27
2019-02-10T04:24:49.078Z,23.63
2019-02-10T04:28:53.299Z,18.87
2019-02-10T04:32:57.453Z,23.23
2019-02-10T04:37:01.663Z,18.33
2019-02-10T04:41:05.888Z,24.00
2019-02-10T04:45:10.372Z,23.77
2019-02-10T04:49:14.568Z,21.53
2019-02-10T04:53:18.804Z,19.10
2019-02-10T04:57:23.009Z,19.43
2019-02-10T05:01:27.206Z,23.20
2019-02-10T05:05:31.418Z,19.73
2019-02-10T05:09:35.608Z,16.73
2019-02-10T05:13:39.819Z,29.63
2019-02-10T05:17:43.984Z,20.87
2019-02-10T05:21:48.236Z,27.57
2019-02-10T05:25:52.411Z,21.57
2019-02-10T05:29:56.620Z,22.40
2019-02-10T05:34:00.915Z,20.43
2019-02-10T05:38:05.205Z,24.57
2019-02-10T05:42:09.433Z,22.23
2019-02-10T05:46:13.697Z,24.63
2019-02-10T05:50:17.907Z,18.93
2019-02-10T05:54:22.095Z,21.03
2019-02-10T05:58:26.638Z,19.23
2019-02-10T06:02:34.321Z,23.50
2019-02-10T06:06:38.596Z,20.23
2019-02-10T06:10:42.744Z,23.20
2019-02-10T06:14:46.972Z,21.80
2019-02-10T06:18:51.139Z,22.30
2019-02-10T06:22:56.268Z,20.03
2019-02-10T06:27:00.570Z,22.70
2019-02-10T06:31:04.767Z,19.20
2019-02-10T06:35:10.110Z,17.87
2019-02-10T06:39:14.311Z,17.97
2019-02-10T06:43:18.518Z,10.00
2019-02-10T06:47:22.725Z,17.43
2019-02-10T06:51:26.899Z,17.20
2019-02-10T06:55:31.883Z,18.30
2019-02-10T06:59:44.896Z,15.33
2019-02-10T07:04:04.080Z,11.77
2019-02-10T07:08:08.556Z,15.43
2019-02-10T07:12:46.564Z,13.33
2019-02-10T07:17:28.905Z,11.13
2019-02-10T07:21:36.940Z,11.87
2019-02-10T07:25:49.586Z,10.47
2019-02-10T07:30:28.882Z,10.63
2019-02-10T07:35:08.333Z,14.10
2019-02-10T07:39:29.836Z,12.33
2019-02-10T07:43:50.829Z,13.13
2019-02-10T07:48:22.943Z,12.43
2019-02-10T07:52:50.565Z,10.13
2019-02-10T07:57:44.803Z,9.73
2019-02-10T08:02:36.325Z,11.80
2019-02-10T08:07:17.431Z,13.03
2019-02-10T08:12:05.545Z,9.67
2019-02-10T08:16:54.360Z,9.67
2019-02-10T08:21:49.531Z,13.70
2019-02-10T08:26:24.865Z,11.80
2019-02-10T08:30:42.280Z,10.77
2019-02-10T08:35:34.660Z,12.00
2019-02-10T08:40:10.799Z,10.97
2019-02-10T08:44:41.343Z,13.43
2019-02-10T08:49:23.458Z,12.30
2019-02-10T08:53:31.718Z,11.93
2019-02-10T08:57:35.884Z,14.27
2019-02-10T09:01:40.128Z,14.03
2019-02-10T09:05:44.330Z,13.50
2019-02-10T09:09:48.509Z,16.83
2019-02-10T09:13:52.741Z,12.67
2019-02-10T09:17:56.950Z,16.10
2019-02-10T09:22:01.160Z,14.47
2019-02-10T09:26:05.651Z,18.73
2019-02-10T09:30:11.327Z,17.37
2019-02-10T09:34:17.006Z,19.77
2019-02-10T09:38:21.285Z,16.10
2019-02-10T09:42:25.463Z,19.80
2019-02-10T09:46:29.951Z,17.90
2019-02-10T09:50:34.172Z,15.50
2019-02-10T09:54:38.407Z,18.50
2019-02-10T09:58:42.652Z,16.03
2019-02-10T10:02:46.810Z,20.00
2019-02-10T10:06:51.006Z,19.27
2019-02-10T10:10:56.555Z,17.93
2019-02-10T10:15:02.171Z,17.53
2019-02-10T10:19:06.813Z,21.90
2019-02-10T10:23:11.027Z,20.47
2019-02-10T10:27:15.239Z,19.20
2019-02-10T10:31:19.478Z,16.60
2019-02-10T10:35:23.714Z,24.13
2019-02-10T10:39:27.929Z,26.47
2019-02-10T10:43:32.175Z,21.90
2019-02-10T10:47:36.346Z,18.07
2019-02-10T10:51:40.590Z,19.47
2019-02-10T10:55:44.784Z,19.77
2019-02-10T10:59:49.008Z,21.10
2019-02-10T11:03:53.300Z,24.37
2019-02-10T11:07:57.521Z,24.37
2019-02-10T11:12:01.731Z,20.30
2019-02-10T11:16:06.034Z,25.80
2019-02-10T11:20:10.902Z,20.30
2019-02-10T11:24:15.161Z,23.43
2019-02-10T11:28:20.059Z,22.00
2019-02-10T11:32:24.386Z,26.47
2019-02-10T11:36:28.540Z,25.57
2019-02-10T11:40:33.111Z,21.83
2019-02-10T11:44:37.305Z,30.13
2019-02-10T11:48:41.526Z,21.80
2019-02-10T11:52:46.036Z,23.37
2019-02-10T11:56:50.196Z,22.87
2019-02-10T12:00:54.547Z,23.53
2019-02-10T12:04:58.709Z,25.07
2019-02-10T12:09:03.004Z,25.23
2019-02-10T12:13:07.573Z,25.00
2019-02-10T12:17:11.762Z,26.37
2019-02-10T12:21:16.265Z,28.27
2019-02-10T12:25:20.460Z,25.37
2019-02-10T12:29:24.650Z,23.40
2019-02-10T12:33:28.871Z,24.23
2019-02-10T12:37:33.091Z,24.67
2019-02-10T12:41:37.306Z,20.60
2019-02-10T12:45:41.527Z,25.90
2019-02-10T12:49:45.838Z,26.40
2019-02-10T12:53:50.327Z,20.27
2019-02-10T12:57:55.729Z,25.47
2019-02-10T13:02:01.479Z,23.30
2019-02-10T13:06:05.638Z,22.13
2019-02-10T13:10:13.104Z,23.30
2019-02-10T13:14:18.968Z,21.67
2019-02-10T13:18:23.308Z,21.60
2019-02-10T13:22:27.540Z,21.43
2019-02-10T13:26:31.695Z,22.50
2019-02-10T13:30:35.959Z,15.30
2019-02-10T13:34:51.033Z,22.23
2019-02-10T13:38:55.430Z,21.10
2019-02-10T13:43:01.058Z,21.97
2019-02-10T13:47:08.487Z,20.53
2019-02-10T13:51:13.160Z,19.80
2019-02-10T13:55:17.751Z,19.77
2019-02-10T13:59:22.070Z,23.43
2019-02-10T14:03:26.341Z,19.67
2019-02-10T14:07:31.659Z,19.17
2019-02-10T14:11:35.856Z,18.87
2019-02-10T14:15:40.759Z,17.97
2019-02-10T14:19:44.967Z,20.33
2019-02-10T14:23:49.273Z,18.37
2019-02-10T14:27:53.760Z,19.33
2019-02-10T14:31:59.016Z,14.70
2019-02-10T14:36:03.235Z,18.77
2019-02-10T14:40:07.465Z,18.67
2019-02-10T14:44:12.197Z,15.43
2019-02-10T14:48:17.143Z,18.87
2019-02-10T14:52:21.364Z,17.07
2019-02-10T14:56:25.558Z,19.43
2019-02-10T15:00:30.947Z,18.00
2019-02-10T15:04:37.019Z,15.73
2019-02-10T15:08:41.228Z,19.17
2019-02-10T15:12:47.464Z,14.73
2019-02-10T15:16:53.989Z,17.53
2019-02-10T15:20:58.202Z,18.83
2019-02-10T15:25:02.461Z,17.50
2019-02-10T15:29:06.681Z,19.40
2019-02-10T15:33:10.880Z,17.17
2019-02-10T15:37:15.106Z,16.23
2019-02-10T15:41:19.333Z,18.23
2019-02-10T15:45:23.571Z,17.53
2019-02-10T15:49:28.865Z,18.67
2019-02-10T15:53:33.078Z,15.90
2019-02-10T15:57:37.287Z,18.27
2019-02-10T16:01:41.513Z,16.27
2019-02-10T16:05:45.789Z,15.87
2019-02-10T16:09:49.955Z,16.23
2019-02-10T16:13:54.174Z,14.47
2019-02-10T16:17:58.474Z,16.00
2019-02-10T16:22:02.681Z,16.20
2019-02-10T16:26:06.871Z,14.63
2019-02-10T16:30:12.402Z,18.53
2019-02-10T16:34:16.623Z,16.47
2019-02-10T16:38:20.893Z,16.70
2019-02-10T16:42:25.122Z,14.83
2019-02-10T16:46:29.395Z,15.57
2019-02-10T16:50:33.737Z,16.70
2019-02-10T16:54:37.954Z,14.13
2019-02-10T16:58:42.168Z,14.17
2019-02-10T17:02:46.415Z,12.90
2019-02-10T17:06:51.010Z,17.47
2019-02-10T17:10:55.346Z,15.53
2019-02-10T17:14:59.768Z,12.97
2019-02-10T17:19:03.971Z,12.40
2019-02-10T17:23:08.164Z,13.37
2019-02-10T17:27:12.346Z,13.80
2019-02-10T17:31:16.546Z,11.73
2019-02-10T17:35:20.755Z,13.30
2019-02-10T17:39:25.488Z,13.47
2019-02-10T17:43:29.707Z,10.10
2019-02-10T17:47:33.871Z,11.37
2019-02-10T17:51:38.116Z,15.17
2019-02-10T17:55:42.368Z,11.67
2019-02-10T17:59:46.572Z,13.83
2019-02-10T18:03:50.817Z,16.90
2019-02-10T18:07:54.979Z,16.53
2019-02-10T18:11:59.220Z,14.40
2019-02-10T18:16:31.848Z,12.43
2019-02-10T18:20:53.616Z,15.53
2019-02-10T18:25:26.045Z,16.70
2019-02-10T18:29:48.527Z,14.07
2019-02-10T18:34:07.233Z,13.30
2019-02-10T18:38:32.977Z,13.50
2019-02-10T18:42:47.167Z,11.80
2019-02-10T18:47:22.366Z,14.77
2019-02-10T18:51:32.081Z,12.17
2019-02-10T18:55:50.040Z,14.70
2019-02-10T19:00:11.860Z,12.63
2019-02-10T19:04:34.286Z,15.20
2019-02-10T19:08:50.345Z,13.03
2019-02-10T19:13:04.705Z,14.23
2019-02-10T19:17:27.838Z,15.63
2019-02-10T19:21:40.628Z,18.10
2019-02-10T19:26:12.658Z,17.40
2019-02-10T19:30:27.557Z,24.10
2019-02-10T19:34:54.698Z,28.80
2019-02-10T19:39:10.555Z,22.87
2019-02-10T19:43:32.696Z,26.53
2019-02-10T19:47:55.847Z,23.30
2019-02-10T19:52:24.847Z,27.00
2019-02-10T19:56:39.590Z,26.50
2019-02-10T20:01:09.046Z,25.03
2019-02-10T20:05:25.630Z,24.30
2019-02-10T20:09:47.520Z,21.93
2019-02-10T20:13:59.732Z,22.47
2019-02-10T20:18:25.921Z,25.80
2019-02-10T20:28:07.617Z,29.30
2019-02-10T20:32:18.376Z,23.37
2019-02-10T20:36:38.382Z,26.53
2019-02-10T20:41:09.029Z,25.90
2019-02-10T20:45:33.449Z,30.23
2019-02-10T20:49:56.703Z,28.33
2019-02-10T20:54:33.091Z,31.70
2019-02-10T20:59:02.428Z,30.77
2019-02-10T21:03:27.825Z,33.30
2019-02-10T21:07:49.648Z,31.07
2019-02-10T21:12:08.828Z,24.90
2019-02-10T21:16:35.025Z,33.93
2019-02-10T21:20:54.766Z,32.23
2019-02-10T21:25:15.139Z,27.50
2019-02-10T21:29:53.547Z,25.57
2019-02-10T21:34:03.723Z,25.30
2019-02-10T21:38:30.287Z,24.90
2019-02-10T21:42:42.706Z,24.40
2019-02-10T21:47:15.203Z,30.70
2019-02-10T21:51:19.535Z,27.30
2019-02-10T21:55:23.766Z,24.80
2019-02-10T21:59:28.705Z,26.20
2019-02-10T22:03:33.167Z,26.10
2019-02-10T22:07:37.507Z,22.53
2019-02-10T22:11:41.857Z,21.17
2019-02-10T22:15:46.108Z,12.67
2019-02-10T22:19:50.368Z,16.40
2019-02-10T22:23:54.590Z,14.53
2019-02-10T22:27:58.852Z,17.13
2019-02-10T22:32:03.385Z,14.63
2019-02-10T22:36:07.690Z,16.93
2019-02-10T22:40:12.279Z,13.30
2019-02-10T22:44:16.564Z,12.10
2019-02-10T22:48:20.789Z,14.50
2019-02-10T22:52:24.977Z,12.40
2019-02-10T22:56:29.233Z,10.87
2019-02-10T23:00:53.378Z,8.50
2019-02-10T23:04:58.736Z,8.07
2019-02-10T23:09:05.003Z,7.40
2019-02-10T23:13:09.244Z,7.33
2019-02-10T23:17:13.803Z,4.33
2019-02-10T23:21:18.387Z,8.40
2019-02-10T23:25:22.558Z,5.40
2019-02-10T23:29:26.763Z,5.03
2019-02-10T23:33:30.975Z,4.27
2019-02-10T23:37:36.085Z,4.40
2019-02-10T23:41:40.325Z,5.33
2019-02-10T23:45:44.547Z,2.77
2019-02-10T23:49:48.748Z,2.83
2019-02-10T23:53:52.993Z,5.00
2019-02-10T23:57:57.214Z,3.27
